createdAt,value
2019-05-11T00:01:20.542Z,2.80
2019-05-11T00:03:51.516Z,2.20
2019-05-11T00:06:22.565Z,2.50
2019-05-11T00:08:53.590Z,2.93
2019-05-11T00:11:24.679Z,2.77
2019-05-11T00:13:55.762Z,2.40
2019-05-11T00:16:26.786Z,2.57
2019-05-11T00:18:57.834Z,2.70
2019-05-11T00:21:28.907Z,2.57
2019-05-11T00:23:59.989Z,2.43
2019-05-11T00:26:31.231Z,2.70
2019-05-11T00:29:02.230Z,2.83
2019-05-11T00:31:33.353Z,2.87
2019-05-11T00:34:04.681Z,2.97
2019-05-11T00:36:35.728Z,2.73
2019-05-11T00:39:08.450Z,2.80
2019-05-11T00:41:39.576Z,2.60
2019-05-11T00:44:10.665Z,2.70
2019-05-11T00:46:41.816Z,2.33
2019-05-11T00:49:12.926Z,3.23
2019-05-11T00:51:43.983Z,3.00
2019-05-11T00:54:14.994Z,3.13
2019-05-11T00:56:46.016Z,2.63
2019-05-11T00:59:21.862Z,3.00
2019-05-11T01:01:49.760Z,2.60
2019-05-11T01:04:20.841Z,3.20
2019-05-11T01:06:51.996Z,2.73
2019-05-11T01:09:23.580Z,2.97
2019-05-11T01:11:54.756Z,2.33
2019-05-11T01:14:25.790Z,2.40
2019-05-11T01:16:56.928Z,2.50
2019-05-11T01:19:27.995Z,3.00
2019-05-11T01:21:59.023Z,2.90
2019-05-11T01:24:30.028Z,2.40
2019-05-11T01:27:02.124Z,3.17
2019-05-11T01:29:33.144Z,2.53
2019-05-11T01:32:04.191Z,3.07
2019-05-11T01:34:35.225Z,2.97
2019-05-11T01:37:06.341Z,2.40
2019-05-11T01:39:37.360Z,2.83
2019-05-11T01:42:08.405Z,2.70
2019-05-11T01:44:39.418Z,3.80
2019-05-11T01:47:10.438Z,2.83
2019-05-11T01:49:42.411Z,2.30
2019-05-11T01:52:13.378Z,2.60
2019-05-11T01:54:44.363Z,2.50
2019-05-11T01:57:15.357Z,2.43
2019-05-11T01:59:46.324Z,3.00
2019-05-11T02:02:17.582Z,1.87
2019-05-11T02:04:51.618Z,2.40
2019-05-11T02:07:23.007Z,2.20
2019-05-11T02:09:55.073Z,2.67
2019-05-11T02:12:26.110Z,2.30
2019-05-11T02:14:57.120Z,2.63
2019-05-11T02:17:28.115Z,2.20
2019-05-11T02:19:59.196Z,2.30
2019-05-11T02:22:30.276Z,3.20
2019-05-11T02:25:01.229Z,1.70
2019-05-11T02:27:32.701Z,1.67
2019-05-11T02:30:03.805Z,1.83
2019-05-11T02:32:34.895Z,1.73
2019-05-11T02:35:06.241Z,1.80
2019-05-11T02:37:37.241Z,1.87
2019-05-11T02:40:10.072Z,2.17
2019-05-11T02:42:41.630Z,2.17
2019-05-11T02:45:13.171Z,1.67
2019-05-11T02:47:44.333Z,1.93
2019-05-11T02:50:15.556Z,2.27
2019-05-11T02:52:47.004Z,1.80
2019-05-11T02:55:18.194Z,1.63
2019-05-11T02:57:49.200Z,1.50
2019-05-11T03:00:26.937Z,1.60
2019-05-11T03:03:00.885Z,1.80
2019-05-11T03:05:34.640Z,1.73
2019-05-11T03:08:06.132Z,2.30
2019-05-11T03:10:37.114Z,1.67
2019-05-11T03:13:08.114Z,2.00
2019-05-11T03:15:39.242Z,1.60
2019-05-11T03:18:10.457Z,1.60
2019-05-11T03:20:41.723Z,1.87
2019-05-11T03:23:12.704Z,1.70
2019-05-11T03:25:43.765Z,1.67
2019-05-11T03:28:14.833Z,2.00
2019-05-11T03:30:45.837Z,1.30
2019-05-11T03:33:16.849Z,1.63
2019-05-11T03:35:47.904Z,1.60
2019-05-11T03:38:18.904Z,2.07
2019-05-11T03:40:50.081Z,1.23
2019-05-11T03:43:21.116Z,1.50
2019-05-11T03:45:52.137Z,1.70
2019-05-11T03:48:23.111Z,1.40
2019-05-11T03:50:54.127Z,1.77
2019-05-11T03:53:25.156Z,1.40
2019-05-11T03:55:56.143Z,1.50
2019-05-11T03:58:27.575Z,1.40
2019-05-11T04:00:58.579Z,1.43
2019-05-11T04:03:30.711Z,1.40
2019-05-11T04:06:02.765Z,1.50
2019-05-11T04:08:33.959Z,1.43
2019-05-11T04:11:05.077Z,1.20
2019-05-11T04:13:36.143Z,1.50
2019-05-11T04:16:07.258Z,1.47
2019-05-11T04:18:38.315Z,1.30
2019-05-11T04:21:09.312Z,1.03
2019-05-11T04:23:40.326Z,1.27
2019-05-11T04:26:11.395Z,1.33
2019-05-11T04:28:42.553Z,1.10
2019-05-11T04:31:13.493Z,1.10
2019-05-11T04:33:44.506Z,1.40
2019-05-11T04:36:15.482Z,1.87
2019-05-11T04:38:46.454Z,1.43
2019-05-11T04:41:18.410Z,1.37
2019-05-11T04:43:49.438Z,1.90
2019-05-11T04:46:20.415Z,1.87
2019-05-11T04:48:51.484Z,1.80
2019-05-11T04:51:22.448Z,2.37
2019-05-11T04:53:53.529Z,2.00
2019-05-11T04:56:24.501Z,1.77
2019-05-11T04:58:55.498Z,1.30
2019-05-11T05:01:26.590Z,1.63
2019-05-11T05:04:12.227Z,1.60
2019-05-11T05:06:30.279Z,1.30
2019-05-11T05:09:03.652Z,1.50
2019-05-11T05:11:36.742Z,1.30
2019-05-11T05:14:08.358Z,1.40
2019-05-11T05:16:39.418Z,1.30
2019-05-11T05:19:10.528Z,1.50
2019-05-11T05:21:41.638Z,1.97
2019-05-11T05:24:12.667Z,1.27
2019-05-11T05:26:43.653Z,1.17
2019-05-11T05:29:14.927Z,1.37
2019-05-11T05:31:46.966Z,1.47
2019-05-11T05:34:17.955Z,2.17
2019-05-11T05:36:48.931Z,1.77
2019-05-11T05:39:20.117Z,1.93
2019-05-11T05:41:56.927Z,2.27
2019-05-11T05:44:27.459Z,2.53
2019-05-11T05:46:56.593Z,2.30
2019-05-11T05:49:27.586Z,1.77
2019-05-11T05:51:58.761Z,1.67
2019-05-11T05:54:29.909Z,2.00
2019-05-11T05:57:00.891Z,2.30
2019-05-11T05:59:31.885Z,2.50
2019-05-11T06:02:02.856Z,2.73
2019-05-11T06:04:34.319Z,2.73
2019-05-11T06:07:05.330Z,2.40
2019-05-11T06:09:36.681Z,2.00
2019-05-11T06:12:07.652Z,2.30
2019-05-11T06:14:38.667Z,1.97
2019-05-11T06:17:09.645Z,1.80
2019-05-11T06:19:40.625Z,2.47
2019-05-11T06:22:11.704Z,2.67
2019-05-11T06:24:42.710Z,3.30
2019-05-11T06:27:13.672Z,2.97
2019-05-11T06:29:44.655Z,2.93
2019-05-11T06:32:15.699Z,2.60
2019-05-11T06:34:46.692Z,3.00
2019-05-11T06:37:17.680Z,2.80
2019-05-11T06:39:48.742Z,2.67
2019-05-11T06:42:19.771Z,2.70
2019-05-11T06:44:50.801Z,2.50
2019-05-11T06:47:21.858Z,3.10
2019-05-11T06:49:54.100Z,3.30
2019-05-11T06:52:25.291Z,2.43
2019-05-11T06:54:56.464Z,2.43
2019-05-11T06:57:27.452Z,2.10
2019-05-11T06:59:58.501Z,2.63
2019-05-11T07:02:29.568Z,2.30
2019-05-11T07:05:00.563Z,2.07
2019-05-11T07:07:46.424Z,2.13
2019-05-11T07:10:04.892Z,2.00
2019-05-11T07:12:35.929Z,2.30
2019-05-11T07:15:07.591Z,1.60
2019-05-11T07:17:39.038Z,1.70
2019-05-11T07:20:10.894Z,2.30
2019-05-11T07:22:42.002Z,1.80
2019-05-11T07:25:13.567Z,1.67
2019-05-11T07:27:44.958Z,1.20
2019-05-11T07:30:17.175Z,1.63
2019-05-11T07:32:48.332Z,1.30
2019-05-11T07:35:19.522Z,1.40
2019-05-11T07:37:50.600Z,1.50
2019-05-11T07:40:21.700Z,1.70
2019-05-11T07:42:52.723Z,1.20
2019-05-11T07:45:23.919Z,1.10
2019-05-11T07:47:55.029Z,1.07
2019-05-11T07:50:28.366Z,1.07
2019-05-11T07:52:59.089Z,1.10
2019-05-11T07:55:30.293Z,1.03
2019-05-11T07:58:01.280Z,1.20
2019-05-11T08:00:36.342Z,1.10
2019-05-11T08:03:05.668Z,1.10
2019-05-11T08:05:38.579Z,1.30
2019-05-11T08:08:09.610Z,1.43
2019-05-11T08:10:40.639Z,1.20
2019-05-11T08:13:11.616Z,1.47
2019-05-11T08:15:42.784Z,1.30
2019-05-11T08:18:13.965Z,1.10
2019-05-11T08:20:47.747Z,1.00
2019-05-11T08:23:18.216Z,1.40
2019-05-11T08:25:49.586Z,1.50
2019-05-11T08:28:20.668Z,1.30
2019-05-11T08:30:51.825Z,1.20
2019-05-11T08:33:23.006Z,1.27
2019-05-11T08:35:54.041Z,1.20
2019-05-11T08:38:25.125Z,1.47
2019-05-11T08:40:56.166Z,1.23
2019-05-11T08:43:28.477Z,1.13
2019-05-11T08:45:59.852Z,1.67
2019-05-11T08:48:30.919Z,1.67
2019-05-11T08:51:01.903Z,1.50
2019-05-11T08:53:33.239Z,1.80
2019-05-11T08:56:04.385Z,1.80
2019-05-11T08:58:37.822Z,1.70
2019-05-11T09:01:08.934Z,1.63
2019-05-11T09:03:40.005Z,1.07
2019-05-11T09:06:11.167Z,1.20
2019-05-11T09:08:42.240Z,1.53
2019-05-11T09:11:13.271Z,1.37
2019-05-11T09:13:44.447Z,1.40
2019-05-11T09:16:18.640Z,1.10
2019-05-11T09:18:48.589Z,1.00
2019-05-11T09:21:20.017Z,1.10
2019-05-11T09:23:51.137Z,0.90
2019-05-11T09:26:22.589Z,1.37
2019-05-11T09:28:53.843Z,1.13
2019-05-11T09:31:24.855Z,1.30
2019-05-11T09:33:58.383Z,1.20
2019-05-11T09:36:29.192Z,1.23
2019-05-11T09:39:00.166Z,1.33
2019-05-11T09:41:31.260Z,1.10
2019-05-11T09:44:02.336Z,1.10
2019-05-11T09:46:33.438Z,1.47
2019-05-11T09:49:04.433Z,1.53
2019-05-11T09:51:37.815Z,0.80
2019-05-11T09:54:08.344Z,1.10
2019-05-11T09:56:39.557Z,1.27
2019-05-11T09:59:10.705Z,1.00
2019-05-11T10:01:41.875Z,1.33
2019-05-11T10:04:13.135Z,1.40
2019-05-11T10:06:44.336Z,1.00
2019-05-11T10:09:15.499Z,0.90
2019-05-11T10:11:48.011Z,0.87
2019-05-11T10:14:19.297Z,1.10
2019-05-11T10:16:50.384Z,1.00
2019-05-11T10:19:21.359Z,0.90
2019-05-11T10:21:52.458Z,1.00
2019-05-11T10:24:23.473Z,0.80
2019-05-11T10:26:54.640Z,0.97
2019-05-11T10:29:25.738Z,1.10
2019-05-11T10:31:58.759Z,1.20
2019-05-11T10:34:29.482Z,1.13
2019-05-11T10:37:00.690Z,1.20
2019-05-11T10:39:32.758Z,1.30
2019-05-11T10:42:03.871Z,1.20
2019-05-11T10:44:34.875Z,1.10
2019-05-11T10:47:08.059Z,1.07
2019-05-11T10:49:38.655Z,1.30
2019-05-11T10:52:09.909Z,1.20
2019-05-11T10:54:41.100Z,1.30
2019-05-11T10:57:12.248Z,0.97
2019-05-11T10:59:43.368Z,0.80
2019-05-11T11:02:14.545Z,0.90
2019-05-11T11:04:45.725Z,1.20
2019-05-11T11:07:19.268Z,0.90
2019-05-11T11:09:49.446Z,0.87
2019-05-11T11:12:20.464Z,1.10
2019-05-11T11:14:51.473Z,0.87
2019-05-11T11:17:22.495Z,0.90
2019-05-11T11:19:53.509Z,1.03
2019-05-11T11:22:37.028Z,0.70
2019-05-11T11:24:58.942Z,0.70
2019-05-11T11:27:30.155Z,0.90
2019-05-11T11:30:01.283Z,1.43
2019-05-11T11:32:32.461Z,1.40
2019-05-11T11:35:03.540Z,1.47
2019-05-11T11:37:34.716Z,1.40
2019-05-11T11:40:08.399Z,1.13
2019-05-11T11:42:39.471Z,0.83
2019-05-11T11:45:12.173Z,1.00
2019-05-11T11:47:43.283Z,0.90
2019-05-11T11:50:14.591Z,0.80
2019-05-11T11:52:47.571Z,1.07
2019-05-11T11:55:18.920Z,1.10
2019-05-11T11:57:51.104Z,1.10
2019-05-11T12:00:23.295Z,1.30
2019-05-11T12:02:54.383Z,1.33
2019-05-11T12:05:25.366Z,1.07
2019-05-11T12:07:58.045Z,1.00
2019-05-11T12:10:30.217Z,0.77
2019-05-11T12:13:01.414Z,0.90
2019-05-11T12:15:33.098Z,0.90
2019-05-11T12:18:04.236Z,1.00
2019-05-11T12:20:35.371Z,0.80
2019-05-11T12:23:08.569Z,0.70
2019-05-11T12:25:40.579Z,1.00
2019-05-11T12:28:11.941Z,1.10
2019-05-11T12:30:43.075Z,1.10
2019-05-11T12:33:14.242Z,0.90
2019-05-11T12:35:45.417Z,1.00
2019-05-11T12:38:18.297Z,1.10
2019-05-11T12:40:50.500Z,1.17
2019-05-11T12:43:22.624Z,1.10
2019-05-11T12:45:54.031Z,1.50
2019-05-11T12:48:25.099Z,1.27
2019-05-11T12:50:58.639Z,1.20
2019-05-11T12:53:29.225Z,1.30
2019-05-11T12:56:00.379Z,1.20
2019-05-11T12:58:31.662Z,0.90
2019-05-11T13:01:02.741Z,0.70
2019-05-11T13:03:33.764Z,1.00
2019-05-11T13:06:05.067Z,0.73
2019-05-11T13:08:36.237Z,0.70
2019-05-11T13:11:07.989Z,0.70
2019-05-11T13:13:39.163Z,0.67
2019-05-11T13:16:10.144Z,1.10
2019-05-11T13:18:41.151Z,0.77
2019-05-11T13:21:12.297Z,1.00
2019-05-11T13:23:43.519Z,0.70
2019-05-11T13:26:14.683Z,0.80
2019-05-11T13:28:48.143Z,0.60
2019-05-11T13:31:18.954Z,0.60
2019-05-11T13:33:51.341Z,0.60
2019-05-11T13:36:22.428Z,0.60
2019-05-11T13:38:54.533Z,0.60
2019-05-11T13:41:27.464Z,1.03
2019-05-11T13:43:58.725Z,0.63
2019-05-11T13:46:29.731Z,0.50
2019-05-11T13:49:00.734Z,0.60
2019-05-11T13:51:31.917Z,0.47
2019-05-11T13:54:02.970Z,0.70
2019-05-11T13:56:33.951Z,0.60
2019-05-11T13:59:10.664Z,0.60
2019-05-11T14:01:42.972Z,0.57
2019-05-11T14:04:13.968Z,0.50
2019-05-11T14:06:44.939Z,0.50
2019-05-11T14:09:18.254Z,0.70
2019-05-11T14:11:49.191Z,0.70
2019-05-11T14:14:20.348Z,0.50
2019-05-11T14:16:51.295Z,0.50
2019-05-11T14:19:22.689Z,0.97
2019-05-11T14:21:53.701Z,0.60
2019-05-11T14:24:25.206Z,0.60
2019-05-11T14:26:58.060Z,0.50
2019-05-11T14:29:29.010Z,0.60
2019-05-11T14:32:00.142Z,0.60
2019-05-11T14:34:31.302Z,0.90
2019-05-11T14:37:02.491Z,0.70
2019-05-11T14:39:33.542Z,0.80
2019-05-11T14:42:04.757Z,0.70
2019-05-11T14:44:37.741Z,0.63
2019-05-11T14:47:08.699Z,0.50
2019-05-11T14:49:39.831Z,0.50
2019-05-11T14:52:10.928Z,0.50
2019-05-11T14:54:42.452Z,0.50
2019-05-11T14:57:13.466Z,0.60
2019-05-11T14:59:44.751Z,0.60
2019-05-11T15:02:33.392Z,0.80
2019-05-11T15:05:04.671Z,0.70
2019-05-11T15:07:38.515Z,0.60
2019-05-11T15:10:10.836Z,0.70
2019-05-11T15:12:42.289Z,0.50
2019-05-11T15:15:13.942Z,0.60
2019-05-11T15:17:45.141Z,0.50
2019-05-11T15:20:17.730Z,0.50
2019-05-11T15:22:49.201Z,0.70
2019-05-11T15:25:21.454Z,0.60
2019-05-11T15:27:52.707Z,0.63
2019-05-11T15:30:24.191Z,0.90
2019-05-11T15:32:55.314Z,0.90
2019-05-11T15:35:28.251Z,0.70
2019-05-11T15:37:59.123Z,0.60
2019-05-11T15:40:30.226Z,0.60
2019-05-11T15:43:01.389Z,0.97
2019-05-11T15:45:32.500Z,0.80
2019-05-11T15:48:03.534Z,0.70
2019-05-11T15:50:34.930Z,0.70
2019-05-11T15:53:08.495Z,0.67
2019-05-11T15:55:42.277Z,0.70
2019-05-11T15:58:11.584Z,0.67
2019-05-11T16:00:42.705Z,0.67
2019-05-11T16:03:13.872Z,0.93
2019-05-11T16:05:45.128Z,0.80
2019-05-11T16:08:18.592Z,0.73
2019-05-11T16:10:49.321Z,1.13
2019-05-11T16:13:20.655Z,1.30
2019-05-11T16:15:51.815Z,1.10
2019-05-11T16:18:22.769Z,1.00
2019-05-11T16:20:53.867Z,0.70
2019-05-11T16:23:25.172Z,0.70
2019-05-11T16:25:58.069Z,0.80
2019-05-11T16:28:30.857Z,0.80
2019-05-11T16:31:01.895Z,0.77
2019-05-11T16:33:34.029Z,0.80
2019-05-11T16:36:09.043Z,0.70
2019-05-11T16:38:39.218Z,0.80
2019-05-11T16:41:10.313Z,0.80
2019-05-11T16:43:41.560Z,1.00
2019-05-11T16:46:12.751Z,0.70
2019-05-11T16:48:43.841Z,0.80
2019-05-11T16:51:14.908Z,0.80
2019-05-11T16:53:47.953Z,0.80
2019-05-11T16:56:19.679Z,0.80
2019-05-11T16:58:54.178Z,0.70
2019-05-11T17:01:23.872Z,0.80
2019-05-11T17:03:54.853Z,0.60
2019-05-11T17:17:28.437Z,1.00
2019-05-11T17:19:59.874Z,0.70
2019-05-11T17:22:31.088Z,0.73
2019-05-11T17:25:02.160Z,0.90
2019-05-11T17:27:34.474Z,0.80
2019-05-11T17:30:08.590Z,0.70
2019-05-11T17:32:39.809Z,0.70
2019-05-11T17:35:11.467Z,0.60
2019-05-11T17:37:42.600Z,0.60
2019-05-11T17:40:14.129Z,0.70
2019-05-11T17:42:47.391Z,0.70
2019-05-11T17:45:18.827Z,0.70
2019-05-11T17:47:50.333Z,0.50
2019-05-11T17:50:21.565Z,0.57
2019-05-11T17:52:52.705Z,0.50
2019-05-11T17:55:23.807Z,0.50
2019-05-11T17:57:54.866Z,0.60
2019-05-11T18:00:28.125Z,0.70
2019-05-11T18:02:58.991Z,0.70
2019-05-11T18:05:30.211Z,0.70
2019-05-11T18:08:01.326Z,0.60
2019-05-11T18:10:32.450Z,0.70
2019-05-11T18:13:04.275Z,0.80
2019-05-11T18:15:37.850Z,0.80
2019-05-11T18:18:09.394Z,0.97
2019-05-11T18:20:41.825Z,0.77
2019-05-11T18:23:12.868Z,0.70
2019-05-11T18:25:44.467Z,0.70
2019-05-11T18:28:18.000Z,0.70
2019-05-11T18:30:49.679Z,0.70
2019-05-11T18:33:20.732Z,0.60
2019-05-11T18:35:51.899Z,0.80
2019-05-11T18:38:22.924Z,0.70
2019-05-11T18:40:53.950Z,0.67
2019-05-11T18:43:25.012Z,0.60
2019-05-11T18:45:58.081Z,0.60
2019-05-11T18:48:29.261Z,0.60
2019-05-11T18:51:00.577Z,0.70
2019-05-11T18:53:31.825Z,0.60
2019-05-11T18:56:02.988Z,6.47
2019-05-11T18:58:34.047Z,0.80
2019-05-11T19:01:05.087Z,0.60
2019-05-11T19:03:38.481Z,0.50
2019-05-11T19:06:10.983Z,0.60
2019-05-11T19:08:42.051Z,0.70
2019-05-11T19:11:13.078Z,0.60
2019-05-11T19:13:44.242Z,0.60
2019-05-11T19:16:15.341Z,0.50
2019-05-11T19:18:48.027Z,0.60
2019-05-11T19:21:19.162Z,0.60
2019-05-11T19:23:50.175Z,0.60
2019-05-11T19:26:21.424Z,0.50
2019-05-11T19:28:52.445Z,0.60
2019-05-11T19:31:23.569Z,0.60
2019-05-11T19:33:54.642Z,0.40
2019-05-11T19:36:27.715Z,0.43
2019-05-11T19:38:58.568Z,0.50
2019-05-11T19:41:29.754Z,0.70
2019-05-11T19:44:00.795Z,0.40
2019-05-11T19:46:31.886Z,0.50
2019-05-11T19:49:03.012Z,0.60
2019-05-11T19:51:33.998Z,0.50
2019-05-11T19:54:05.087Z,0.43
2019-05-11T19:56:38.325Z,0.40
2019-05-11T19:59:09.265Z,0.60
2019-05-11T20:01:40.409Z,0.60
2019-05-11T20:04:11.943Z,0.47
2019-05-11T20:06:43.041Z,0.53
2019-05-11T20:09:15.357Z,0.60
2019-05-11T20:11:47.634Z,0.50
2019-05-11T20:14:18.957Z,0.50
2019-05-11T20:16:49.966Z,0.53
2019-05-11T20:19:21.478Z,0.50
2019-05-11T20:21:52.519Z,0.40
2019-05-11T20:24:25.210Z,0.50
2019-05-11T20:26:56.337Z,0.53
2019-05-11T20:29:27.831Z,0.50
2019-05-11T20:31:58.952Z,0.50
2019-05-11T20:34:30.230Z,0.50
2019-05-11T20:37:01.314Z,1.30
2019-05-11T20:39:32.838Z,0.93
2019-05-11T20:42:03.917Z,0.50
2019-05-11T20:44:35.002Z,0.97
2019-05-11T20:47:06.115Z,0.60
2019-05-11T20:49:38.667Z,0.57
2019-05-11T20:52:10.021Z,0.53
2019-05-11T20:54:41.148Z,0.50
2019-05-11T20:57:12.324Z,0.43
2019-05-11T20:59:43.555Z,0.50
2019-05-11T21:02:14.569Z,0.50
2019-05-11T21:04:45.837Z,0.50
2019-05-11T21:07:16.831Z,0.50
2019-05-11T21:09:48.389Z,0.40
2019-05-11T21:12:19.486Z,0.50
2019-05-11T21:14:50.741Z,0.50
2019-05-11T21:17:21.825Z,0.60
2019-05-11T21:19:52.903Z,0.50
2019-05-11T21:22:24.018Z,0.50
2019-05-11T21:24:55.034Z,0.60
2019-05-11T21:27:28.217Z,0.50
2019-05-11T21:29:59.030Z,0.50
2019-05-11T21:32:30.137Z,0.50
2019-05-11T21:35:01.227Z,0.50
2019-05-11T21:37:32.293Z,0.70
2019-05-11T21:40:03.828Z,0.80
2019-05-11T21:42:35.076Z,0.50
2019-05-11T21:45:09.137Z,5.87
2019-05-11T21:47:39.862Z,1.40
2019-05-11T21:50:11.716Z,0.60
2019-05-11T21:52:42.835Z,0.60
2019-05-11T21:55:14.106Z,0.60
2019-05-11T21:57:49.420Z,0.70
2019-05-11T22:00:18.966Z,0.57
2019-05-11T22:02:51.831Z,0.70
2019-05-11T22:05:22.837Z,0.80
2019-05-11T22:07:53.988Z,0.80
2019-05-11T22:10:25.031Z,0.70
2019-05-11T22:12:56.059Z,0.83
2019-05-11T22:15:28.393Z,0.80
2019-05-11T22:18:01.073Z,0.80
2019-05-11T22:20:32.182Z,0.80
2019-05-11T22:23:03.289Z,0.70
2019-05-11T22:25:34.367Z,0.70
2019-05-11T22:28:05.341Z,0.90
2019-05-11T22:30:39.064Z,0.70
2019-05-11T22:33:09.457Z,0.80
2019-05-11T22:35:40.737Z,1.33
2019-05-11T22:38:11.798Z,1.10
2019-05-11T22:40:43.346Z,0.80
2019-05-11T22:43:14.624Z,0.90
2019-05-11T22:45:46.089Z,0.90
2019-05-11T22:48:17.231Z,1.00
2019-05-11T22:50:50.524Z,0.80
2019-05-11T22:53:21.137Z,0.80
2019-05-11T22:55:52.205Z,3.23
2019-05-11T22:58:23.241Z,1.07
2019-05-11T23:00:54.217Z,0.90
2019-05-11T23:03:27.696Z,0.90
2019-05-11T23:05:58.253Z,0.90
2019-05-11T23:08:29.599Z,1.30
2019-05-11T23:11:00.630Z,1.00
2019-05-11T23:13:31.663Z,1.10
2019-05-11T23:16:02.830Z,1.00
2019-05-11T23:18:33.915Z,1.80
2019-05-11T23:23:42.185Z,1.33
2019-05-11T23:26:13.250Z,2.30
2019-05-11T23:28:44.295Z,1.40
2019-05-11T23:31:15.277Z,1.30
2019-05-11T23:33:46.285Z,1.10
2019-05-11T23:36:18.300Z,1.40
2019-05-11T23:38:49.461Z,1.57
2019-05-11T23:41:24.503Z,1.63
2019-05-11T23:43:53.309Z,1.40
2019-05-11T23:46:24.330Z,1.70
2019-05-11T23:48:55.301Z,1.73
2019-05-11T23:51:28.333Z,1.80
2019-05-11T23:53:59.480Z,1.70
2019-05-11T23:56:30.449Z,1.50
2019-05-11T23:59:01.543Z,1.97
